Marcus, North Carolina
Current Conditions -  °F | °C
As of 6:35 AM on Friday 24 Oct 2014 (Local Time) from KSOP Reporting Station
Clear Clear  
Wind Chill: 45°   Ceiling: Unl
Heat Index: 45°   Visibility: 10mi
Dew Point: 37°   Wind: 3mph
Humidity: 76%   Direction: 320°NW
Pressure: 30.03"   Gusts: NA
Location:  35.2008°N, 79.6471°W
Report Text: KSOP 241035Z AUTO 32003KT 10SM CLR 07/03 A3003 RMK AO1
Loading
Personal Weather Stations






























Interactive Weather Map
Tropical Storm Tracking
New forecast layout! Learn more

10-Day Weather Forecast

Advertisements
Track Severe Weather on mobile